sensor_id;sensor_type;location;lat;lon;timestamp;temperature;humidity
612;DHT22;293;53.888;11.464;2023-02-12T00:02:06;7.70;99.90
612;DHT22;293;53.888;11.464;2023-02-12T00:04:34;7.60;99.90
612;DHT22;293;53.888;11.464;2023-02-12T00:07:02;7.60;99.90
612;DHT22;293;53.888;11.464;2023-02-12T00:09:29;7.60;99.90
612;DHT22;293;53.888;11.464;2023-02-12T00:11:56;7.70;99.90
612;DHT22;293;53.888;11.464;2023-02-12T00:14:23;7.70;99.90
612;DHT22;293;53.888;11.464;2023-02-12T00:16:50;7.70;99.90
612;DHT22;293;53.888;11.464;2023-02-12T00:19:16;7.60;99.90
612;DHT22;293;53.888;11.464;2023-02-12T00:21:43;7.60;99.90
612;DHT22;293;53.888;11.464;2023-02-12T00:24:12;7.60;99.90
612;DHT22;293;53.888;11.464;2023-02-12T00:26:38;7.60;99.90
612;DHT22;293;53.888;11.464;2023-02-12T00:29:05;7.60;99.90
612;DHT22;293;53.888;11.464;2023-02-12T00:31:32;7.60;99.90
612;DHT22;293;53.888;11.464;2023-02-12T00:33:59;7.60;99.90
612;DHT22;293;53.888;11.464;2023-02-12T00:36:28;7.70;99.90
612;DHT22;293;53.888;11.464;2023-02-12T00:38:56;7.70;99.90
612;DHT22;293;53.888;11.464;2023-02-12T00:41:25;7.70;99.90
612;DHT22;293;53.888;11.464;2023-02-12T00:43:52;7.70;99.90
612;DHT22;293;53.888;11.464;2023-02-12T00:46:19;7.60;99.90
612;DHT22;293;53.888;11.464;2023-02-12T00:48:46;7.60;99.90
612;DHT22;293;53.888;11.464;2023-02-12T00:51:13;7.70;99.90
612;DHT22;293;53.888;11.464;2023-02-12T00:53:40;7.70;99.90
612;DHT22;293;53.888;11.464;2023-02-12T00:56:07;7.70;99.90
612;DHT22;293;53.888;11.464;2023-02-12T00:58:35;7.70;99.90
612;DHT22;293;53.888;11.464;2023-02-12T01:01:02;7.70;99.90
612;DHT22;293;53.888;11.464;2023-02-12T01:03:30;7.80;99.90
612;DHT22;293;53.888;11.464;2023-02-12T01:05:56;7.80;99.90
612;DHT22;293;53.888;11.464;2023-02-12T01:08:23;7.80;99.90
612;DHT22;293;53.888;11.464;2023-02-12T01:10:54;7.80;99.90
612;DHT22;293;53.888;11.464;2023-02-12T01:13:22;7.70;99.90
612;DHT22;293;53.888;11.464;2023-02-12T01:16:00;7.70;99.90
612;DHT22;293;53.888;11.464;2023-02-12T01:18:27;7.60;99.90
612;DHT22;293;53.888;11.464;2023-02-12T01:20:54;7.70;99.90
612;DHT22;293;53.888;11.464;2023-02-12T01:23:23;7.60;99.90
612;DHT22;293;53.888;11.464;2023-02-12T01:25:50;7.70;99.90
612;DHT22;293;53.888;11.464;2023-02-12T01:28:17;7.70;99.90
612;DHT22;293;53.888;11.464;2023-02-12T01:30:44;7.70;99.90
612;DHT22;293;53.888;11.464;2023-02-12T01:33:12;7.70;99.90
612;DHT22;293;53.888;11.464;2023-02-12T01:35:39;7.70;99.90
612;DHT22;293;53.888;11.464;2023-02-12T01:38:06;7.80;99.90
612;DHT22;293;53.888;11.464;2023-02-12T01:40:32;7.80;99.90
612;DHT22;293;53.888;11.464;2023-02-12T01:43:02;7.80;99.90
612;DHT22;293;53.888;11.464;2023-02-12T01:45:47;7.80;99.90
612;DHT22;293;53.888;11.464;2023-02-12T01:48:17;7.90;99.90
612;DHT22;293;53.888;11.464;2023-02-12T01:50:48;7.90;99.90
612;DHT22;293;53.888;11.464;2023-02-12T01:53:17;7.80;99.90
612;DHT22;293;53.888;11.464;2023-02-12T01:55:51;7.90;99.90
612;DHT22;293;53.888;11.464;2023-02-12T01:58:19;7.90;99.90
612;DHT22;293;53.888;11.464;2023-02-12T02:00:46;8.00;99.90
612;DHT22;293;53.888;11.464;2023-02-12T02:03:13;8.00;99.90
612;DHT22;293;53.888;11.464;2023-02-12T02:05:49;8.00;99.90
612;DHT22;293;53.888;11.464;2023-02-12T02:08:19;8.00;99.90
612;DHT22;293;53.888;11.464;2023-02-12T02:10:46;8.00;99.90
612;DHT22;293;53.888;11.464;2023-02-12T02:13:13;8.10;99.90
612;DHT22;293;53.888;11.464;2023-02-12T02:16:02;8.10;99.90
612;DHT22;293;53.888;11.464;2023-02-12T02:18:35;8.10;99.90
612;DHT22;293;53.888;11.464;2023-02-12T02:24:51;8.20;99.90
612;DHT22;293;53.888;11.464;2023-02-12T02:27:23;8.20;99.90
612;DHT22;293;53.888;11.464;2023-02-12T02:30:21;8.20;99.90
612;DHT22;293;53.888;11.464;2023-02-12T02:32:56;8.20;99.90
612;DHT22;293;53.888;11.464;2023-02-12T02:35:28;8.10;99.90
612;DHT22;293;53.888;11.464;2023-02-12T02:38:06;8.10;99.90
612;DHT22;293;53.888;11.464;2023-02-12T02:40:48;8.10;99.90
612;DHT22;293;53.888;11.464;2023-02-12T02:43:19;8.10;99.90
612;DHT22;293;53.888;11.464;2023-02-12T02:45:51;8.00;99.90
612;DHT22;293;53.888;11.464;2023-02-12T02:48:23;8.10;99.90
612;DHT22;293;53.888;11.464;2023-02-12T02:50:55;8.10;99.90
612;DHT22;293;53.888;11.464;2023-02-12T02:53:29;8.00;99.90
612;DHT22;293;53.888;11.464;2023-02-12T02:55:59;8.00;99.90
612;DHT22;293;53.888;11.464;2023-02-12T02:58:31;8.10;99.90
612;DHT22;293;53.888;11.464;2023-02-12T03:01:05;8.10;99.90
612;DHT22;293;53.888;11.464;2023-02-12T03:03:37;8.10;99.90
612;DHT22;293;53.888;11.464;2023-02-12T03:06:08;8.10;99.90
612;DHT22;293;53.888;11.464;2023-02-12T03:08:39;8.10;99.90
612;DHT22;293;53.888;11.464;2023-02-12T03:11:10;8.10;99.90
612;DHT22;293;53.888;11.464;2023-02-12T03:13:43;8.90;99.90
612;DHT22;293;53.888;11.464;2023-02-12T03:16:19;8.00;99.90
612;DHT22;293;53.888;11.464;2023-02-12T03:18:51;8.00;99.90
612;DHT22;293;53.888;11.464;2023-02-12T03:21:23;8.00;99.90
612;DHT22;293;53.888;11.464;2023-02-12T03:23:56;8.00;99.90
612;DHT22;293;53.888;11.464;2023-02-12T03:26:31;8.10;99.90
612;DHT22;293;53.888;11.464;2023-02-12T03:29:02;8.10;99.90
612;DHT22;293;53.888;11.464;2023-02-12T03:31:36;8.10;99.90
612;DHT22;293;53.888;11.464;2023-02-12T03:34:10;8.10;99.90
612;DHT22;293;53.888;11.464;2023-02-12T03:36:45;8.20;99.90
612;DHT22;293;53.888;11.464;2023-02-12T03:39:20;8.20;99.90
612;DHT22;293;53.888;11.464;2023-02-12T03:41:57;8.20;99.90
612;DHT22;293;53.888;11.464;2023-02-12T03:44:35;8.10;99.90
612;DHT22;293;53.888;11.464;2023-02-12T03:47:18;8.10;99.90
612;DHT22;293;53.888;11.464;2023-02-12T03:49:50;8.10;99.90
612;DHT22;293;53.888;11.464;2023-02-12T03:52:19;8.10;99.90
612;DHT22;293;53.888;11.464;2023-02-12T03:54:46;8.10;99.90
612;DHT22;293;53.888;11.464;2023-02-12T03:57:16;8.10;99.90
612;DHT22;293;53.888;11.464;2023-02-12T03:59:46;8.00;99.90
612;DHT22;293;53.888;11.464;2023-02-12T04:02:16;8.10;99.90
612;DHT22;293;53.888;11.464;2023-02-12T04:04:44;8.00;99.90
612;DHT22;293;53.888;11.464;2023-02-12T04:07:12;8.00;99.90
612;DHT22;293;53.888;11.464;2023-02-12T04:09:39;7.90;99.90
612;DHT22;293;53.888;11.464;2023-02-12T04:12:33;7.90;99.90
612;DHT22;293;53.888;11.464;2023-02-12T04:17:57;7.90;99.90
612;DHT22;293;53.888;11.464;2023-02-12T04:20:39;7.90;99.90
612;DHT22;293;53.888;11.464;2023-02-12T04:23:15;8.00;99.90
612;DHT22;293;53.888;11.464;2023-02-12T04:25:51;8.00;99.90
612;DHT22;293;53.888;11.464;2023-02-12T04:28:27;8.00;99.90
612;DHT22;293;53.888;11.464;2023-02-12T04:30:59;7.90;99.90
612;DHT22;293;53.888;11.464;2023-02-12T04:33:34;7.90;99.90
612;DHT22;293;53.888;11.464;2023-02-12T04:36:08;8.00;99.90
612;DHT22;293;53.888;11.464;2023-02-12T04:38:40;8.00;99.90
612;DHT22;293;53.888;11.464;2023-02-12T04:41:08;7.90;99.90
612;DHT22;293;53.888;11.464;2023-02-12T04:43:36;8.00;99.90
612;DHT22;293;53.888;11.464;2023-02-12T04:46:04;8.00;99.90
612;DHT22;293;53.888;11.464;2023-02-12T04:48:33;7.90;99.90
612;DHT22;293;53.888;11.464;2023-02-12T04:51:00;7.90;99.90
612;DHT22;293;53.888;11.464;2023-02-12T04:53:28;7.90;99.90
612;DHT22;293;53.888;11.464;2023-02-12T04:55:54;7.90;99.90
612;DHT22;293;53.888;11.464;2023-02-12T04:58:21;7.90;99.90
612;DHT22;293;53.888;11.464;2023-02-12T05:00:48;7.90;99.90
612;DHT22;293;53.888;11.464;2023-02-12T05:03:15;7.90;99.90
612;DHT22;293;53.888;11.464;2023-02-12T05:05:43;7.90;99.90
612;DHT22;293;53.888;11.464;2023-02-12T05:08:10;7.90;99.90
612;DHT22;293;53.888;11.464;2023-02-12T05:10:37;7.90;99.90
612;DHT22;293;53.888;11.464;2023-02-12T05:13:04;7.90;99.90
612;DHT22;293;53.888;11.464;2023-02-12T05:15:31;7.90;99.90
612;DHT22;293;53.888;11.464;2023-02-12T05:17:58;7.90;99.90
612;DHT22;293;53.888;11.464;2023-02-12T05:20:24;7.90;99.90
612;DHT22;293;53.888;11.464;2023-02-12T05:22:53;7.90;99.90
612;DHT22;293;53.888;11.464;2023-02-12T05:25:20;7.90;99.90
612;DHT22;293;53.888;11.464;2023-02-12T05:27:47;7.90;99.90
612;DHT22;293;53.888;11.464;2023-02-12T05:30:14;7.80;99.90
612;DHT22;293;53.888;11.464;2023-02-12T05:32:41;7.80;99.90
612;DHT22;293;53.888;11.464;2023-02-12T05:35:07;7.80;99.90
612;DHT22;293;53.888;11.464;2023-02-12T05:37:35;7.80;99.90
612;DHT22;293;53.888;11.464;2023-02-12T05:40:04;7.80;99.90
612;DHT22;293;53.888;11.464;2023-02-12T05:42:31;7.90;99.90
612;DHT22;293;53.888;11.464;2023-02-12T05:44:58;7.90;99.90
612;DHT22;293;53.888;11.464;2023-02-12T05:47:25;7.90;99.90
612;DHT22;293;53.888;11.464;2023-02-12T05:49:52;7.90;99.90
612;DHT22;293;53.888;11.464;2023-02-12T05:52:19;7.90;99.90
612;DHT22;293;53.888;11.464;2023-02-12T05:54:48;7.80;99.90
612;DHT22;293;53.888;11.464;2023-02-12T05:57:16;7.80;99.90
612;DHT22;293;53.888;11.464;2023-02-12T05:59:43;7.80;99.90
612;DHT22;293;53.888;11.464;2023-02-12T06:02:10;7.80;99.90
612;DHT22;293;53.888;11.464;2023-02-12T06:04:37;7.80;99.90
612;DHT22;293;53.888;11.464;2023-02-12T06:07:04;7.80;99.90
612;DHT22;293;53.888;11.464;2023-02-12T06:09:31;7.80;99.90
612;DHT22;293;53.888;11.464;2023-02-12T06:11:59;7.80;99.90
612;DHT22;293;53.888;11.464;2023-02-12T06:14:28;7.80;99.90
612;DHT22;293;53.888;11.464;2023-02-12T06:16:55;7.80;99.90
612;DHT22;293;53.888;11.464;2023-02-12T06:19:22;7.80;99.90
612;DHT22;293;53.888;11.464;2023-02-12T06:21:49;7.90;99.90
612;DHT22;293;53.888;11.464;2023-02-12T06:24:17;7.80;99.90
612;DHT22;293;53.888;11.464;2023-02-12T06:26:44;7.80;99.90
612;DHT22;293;53.888;11.464;2023-02-12T06:29:11;7.90;99.90
612;DHT22;293;53.888;11.464;2023-02-12T06:31:40;7.90;99.90
612;DHT22;293;53.888;11.464;2023-02-12T06:34:09;8.00;99.90
612;DHT22;293;53.888;11.464;2023-02-12T06:36:36;7.90;99.90
612;DHT22;293;53.888;11.464;2023-02-12T06:39:04;7.90;99.90
612;DHT22;293;53.888;11.464;2023-02-12T06:41:31;7.80;99.90
612;DHT22;293;53.888;11.464;2023-02-12T06:43:58;7.90;99.90
612;DHT22;293;53.888;11.464;2023-02-12T06:46:25;7.90;99.90
612;DHT22;293;53.888;11.464;2023-02-12T06:48:54;7.80;99.90
612;DHT22;293;53.888;11.464;2023-02-12T06:51:21;7.70;99.90
612;DHT22;293;53.888;11.464;2023-02-12T06:53:48;7.80;99.90
612;DHT22;293;53.888;11.464;2023-02-12T06:56:16;7.80;99.90
612;DHT22;293;53.888;11.464;2023-02-12T06:58:46;7.80;99.90
612;DHT22;293;53.888;11.464;2023-02-12T07:01:14;7.80;99.90
612;DHT22;293;53.888;11.464;2023-02-12T07:03:43;7.80;99.90
612;DHT22;293;53.888;11.464;2023-02-12T07:06:11;7.80;99.90
612;DHT22;293;53.888;11.464;2023-02-12T07:08:39;7.70;99.90
612;DHT22;293;53.888;11.464;2023-02-12T07:11:06;7.90;99.90
612;DHT22;293;53.888;11.464;2023-02-12T07:13:33;7.90;99.90
612;DHT22;293;53.888;11.464;2023-02-12T07:16:03;7.90;99.90
612;DHT22;293;53.888;11.464;2023-02-12T07:18:31;7.90;99.90
612;DHT22;293;53.888;11.464;2023-02-12T07:20:58;7.80;99.90
612;DHT22;293;53.888;11.464;2023-02-12T07:23:27;7.90;99.90
612;DHT22;293;53.888;11.464;2023-02-12T07:25:54;7.90;99.90
612;DHT22;293;53.888;11.464;2023-02-12T07:28:22;7.90;99.90
612;DHT22;293;53.888;11.464;2023-02-12T07:30:48;7.90;99.90
612;DHT22;293;53.888;11.464;2023-02-12T07:33:16;7.90;99.90
612;DHT22;293;53.888;11.464;2023-02-12T07:35:43;7.90;99.90
612;DHT22;293;53.888;11.464;2023-02-12T07:38:09;8.00;99.90
612;DHT22;293;53.888;11.464;2023-02-12T07:40:38;8.00;99.90
612;DHT22;293;53.888;11.464;2023-02-12T07:43:05;8.10;99.90
612;DHT22;293;53.888;11.464;2023-02-12T07:45:31;8.10;99.90
612;DHT22;293;53.888;11.464;2023-02-12T07:47:58;8.10;99.90
612;DHT22;293;53.888;11.464;2023-02-12T07:50:25;8.10;99.90
612;DHT22;293;53.888;11.464;2023-02-12T07:52:52;8.10;99.90
612;DHT22;293;53.888;11.464;2023-02-12T07:55:19;8.10;99.90
612;DHT22;293;53.888;11.464;2023-02-12T07:57:47;8.20;99.90
612;DHT22;293;53.888;11.464;2023-02-12T08:00:15;8.10;99.90
612;DHT22;293;53.888;11.464;2023-02-12T08:02:42;8.20;99.90
612;DHT22;293;53.888;11.464;2023-02-12T08:05:09;8.20;99.90
612;DHT22;293;53.888;11.464;2023-02-12T08:07:36;8.20;99.90
612;DHT22;293;53.888;11.464;2023-02-12T08:10:03;8.20;99.90
612;DHT22;293;53.888;11.464;2023-02-12T08:12:30;8.30;99.90
612;DHT22;293;53.888;11.464;2023-02-12T08:14:58;8.40;99.90
612;DHT22;293;53.888;11.464;2023-02-12T08:17:25;8.40;99.90
612;DHT22;293;53.888;11.464;2023-02-12T08:19:52;8.50;99.90
612;DHT22;293;53.888;11.464;2023-02-12T08:22:19;8.40;99.90
612;DHT22;293;53.888;11.464;2023-02-12T08:24:46;8.50;99.90
612;DHT22;293;53.888;11.464;2023-02-12T08:27:13;8.50;99.90
612;DHT22;293;53.888;11.464;2023-02-12T08:29:40;8.50;99.90
612;DHT22;293;53.888;11.464;2023-02-12T08:32:08;8.60;99.90
612;DHT22;293;53.888;11.464;2023-02-12T08:34:38;8.60;99.90
612;DHT22;293;53.888;11.464;2023-02-12T08:37:05;8.70;99.90
612;DHT22;293;53.888;11.464;2023-02-12T08:39:32;8.80;99.90
612;DHT22;293;53.888;11.464;2023-02-12T08:41:59;8.90;99.90
612;DHT22;293;53.888;11.464;2023-02-12T08:44:26;8.90;99.90
612;DHT22;293;53.888;11.464;2023-02-12T08:46:53;8.90;99.90
612;DHT22;293;53.888;11.464;2023-02-12T08:49:24;8.80;99.90
612;DHT22;293;53.888;11.464;2023-02-12T08:51:53;8.80;99.90
612;DHT22;293;53.888;11.464;2023-02-12T08:54:22;8.90;99.90
612;DHT22;293;53.888;11.464;2023-02-12T08:56:49;8.90;99.90
612;DHT22;293;53.888;11.464;2023-02-12T08:59:16;9.00;99.90
612;DHT22;293;53.888;11.464;2023-02-12T09:01:43;9.10;99.90
612;DHT22;293;53.888;11.464;2023-02-12T09:04:14;9.30;99.90
612;DHT22;293;53.888;11.464;2023-02-12T09:06:44;9.40;99.90
612;DHT22;293;53.888;11.464;2023-02-12T09:09:11;9.60;99.90
612;DHT22;293;53.888;11.464;2023-02-12T09:11:38;9.60;99.90
612;DHT22;293;53.888;11.464;2023-02-12T09:14:06;9.80;99.90
612;DHT22;293;53.888;11.464;2023-02-12T09:16:34;9.80;99.90
612;DHT22;293;53.888;11.464;2023-02-12T09:19:02;9.90;99.90
612;DHT22;293;53.888;11.464;2023-02-12T09:21:29;9.90;99.90
612;DHT22;293;53.888;11.464;2023-02-12T09:23:58;10.00;99.90
612;DHT22;293;53.888;11.464;2023-02-12T09:26:26;10.10;99.90
612;DHT22;293;53.888;11.464;2023-02-12T09:28:53;10.20;99.90
612;DHT22;293;53.888;11.464;2023-02-12T09:31:21;10.30;99.90
612;DHT22;293;53.888;11.464;2023-02-12T09:33:51;10.30;99.90
612;DHT22;293;53.888;11.464;2023-02-12T09:36:18;10.30;99.90
612;DHT22;293;53.888;11.464;2023-02-12T09:38:45;10.30;99.90
612;DHT22;293;53.888;11.464;2023-02-12T09:41:30;10.10;99.90
612;DHT22;293;53.888;11.464;2023-02-12T09:44:08;10.10;99.90
612;DHT22;293;53.888;11.464;2023-02-12T09:46:42;10.00;99.90
612;DHT22;293;53.888;11.464;2023-02-12T09:49:20;10.20;99.90
612;DHT22;293;53.888;11.464;2023-02-12T09:51:51;10.20;99.90
612;DHT22;293;53.888;11.464;2023-02-12T09:54:22;10.30;99.90
612;DHT22;293;53.888;11.464;2023-02-12T09:56:54;10.40;99.90
612;DHT22;293;53.888;11.464;2023-02-12T09:59:29;10.50;99.90
612;DHT22;293;53.888;11.464;2023-02-12T10:01:57;10.60;99.90
612;DHT22;293;53.888;11.464;2023-02-12T10:04:25;10.60;99.90
612;DHT22;293;53.888;11.464;2023-02-12T10:07:00;10.70;99.90
612;DHT22;293;53.888;11.464;2023-02-12T10:09:44;10.70;99.90
612;DHT22;293;53.888;11.464;2023-02-12T10:12:21;10.70;99.90
612;DHT22;293;53.888;11.464;2023-02-12T10:15:14;11.00;99.90
612;DHT22;293;53.888;11.464;2023-02-12T10:17:43;11.10;99.90
612;DHT22;293;53.888;11.464;2023-02-12T10:20:39;11.30;99.90
612;DHT22;293;53.888;11.464;2023-02-12T10:23:24;11.50;99.90
612;DHT22;293;53.888;11.464;2023-02-12T10:25:54;11.40;99.90
612;DHT22;293;53.888;11.464;2023-02-12T10:28:26;11.50;99.90
612;DHT22;293;53.888;11.464;2023-02-12T10:30:56;11.70;99.90
612;DHT22;293;53.888;11.464;2023-02-12T10:33:26;11.80;99.90
612;DHT22;293;53.888;11.464;2023-02-12T10:36:01;11.90;99.90
612;DHT22;293;53.888;11.464;2023-02-12T10:38:31;11.90;99.90
612;DHT22;293;53.888;11.464;2023-02-12T10:41:00;12.00;99.90
612;DHT22;293;53.888;11.464;2023-02-12T10:43:29;12.10;99.90
612;DHT22;293;53.888;11.464;2023-02-12T10:45:56;12.00;99.90
612;DHT22;293;53.888;11.464;2023-02-12T10:48:25;12.00;99.90
612;DHT22;293;53.888;11.464;2023-02-12T10:51:04;11.90;99.90
612;DHT22;293;53.888;11.464;2023-02-12T10:53:37;12.00;99.90
612;DHT22;293;53.888;11.464;2023-02-12T10:56:16;12.00;99.90
612;DHT22;293;53.888;11.464;2023-02-12T10:58:54;12.00;99.90
612;DHT22;293;53.888;11.464;2023-02-12T11:01:24;11.90;99.90
612;DHT22;293;53.888;11.464;2023-02-12T11:03:52;12.00;99.90
612;DHT22;293;53.888;11.464;2023-02-12T11:06:21;11.80;99.90
612;DHT22;293;53.888;11.464;2023-02-12T11:08:49;11.80;99.90
612;DHT22;293;53.888;11.464;2023-02-12T11:11:19;11.70;99.90
612;DHT22;293;53.888;11.464;2023-02-12T11:13:55;11.60;99.90
612;DHT22;293;53.888;11.464;2023-02-12T11:16:28;11.60;99.90
612;DHT22;293;53.888;11.464;2023-02-12T11:19:00;11.70;99.90
612;DHT22;293;53.888;11.464;2023-02-12T11:21:29;11.80;99.90
612;DHT22;293;53.888;11.464;2023-02-12T11:23:56;11.90;99.90
612;DHT22;293;53.888;11.464;2023-02-12T11:26:31;12.00;99.90
612;DHT22;293;53.888;11.464;2023-02-12T11:29:02;12.00;99.90
612;DHT22;293;53.888;11.464;2023-02-12T11:31:31;11.90;99.90
612;DHT22;293;53.888;11.464;2023-02-12T11:34:08;11.90;99.90
612;DHT22;293;53.888;11.464;2023-02-12T11:36:36;11.90;99.90
612;DHT22;293;53.888;11.464;2023-02-12T11:39:05;11.90;99.90
612;DHT22;293;53.888;11.464;2023-02-12T11:41:35;11.90;99.90
612;DHT22;293;53.888;11.464;2023-02-12T11:44:10;11.90;99.90
612;DHT22;293;53.888;11.464;2023-02-12T11:46:38;11.90;99.90
612;DHT22;293;53.888;11.464;2023-02-12T11:49:06;11.80;99.90
612;DHT22;293;53.888;11.464;2023-02-12T11:51:35;11.70;99.90
612;DHT22;293;53.888;11.464;2023-02-12T11:54:04;11.80;99.90
612;DHT22;293;53.888;11.464;2023-02-12T11:56:42;11.90;99.90
612;DHT22;293;53.888;11.464;2023-02-12T11:59:28;11.90;99.90
612;DHT22;293;53.888;11.464;2023-02-12T12:01:57;11.80;99.90
612;DHT22;293;53.888;11.464;2023-02-12T12:04:28;11.70;99.90
612;DHT22;293;53.888;11.464;2023-02-12T12:06:59;11.80;99.90
612;DHT22;293;53.888;11.464;2023-02-12T12:09:33;11.80;99.90
612;DHT22;293;53.888;11.464;2023-02-12T12:12:09;11.90;99.90
612;DHT22;293;53.888;11.464;2023-02-12T12:14:43;12.00;99.90
612;DHT22;293;53.888;11.464;2023-02-12T12:17:37;12.00;99.90
612;DHT22;293;53.888;11.464;2023-02-12T12:20:25;12.00;99.90
612;DHT22;293;53.888;11.464;2023-02-12T12:22:56;11.90;99.90
612;DHT22;293;53.888;11.464;2023-02-12T12:25:28;11.90;99.90
612;DHT22;293;53.888;11.464;2023-02-12T12:28:00;11.80;99.90
612;DHT22;293;53.888;11.464;2023-02-12T12:33:34;11.80;99.90
612;DHT22;293;53.888;11.464;2023-02-12T12:36:26;11.70;99.90
612;DHT22;293;53.888;11.464;2023-02-12T12:39:00;11.80;99.90
612;DHT22;293;53.888;11.464;2023-02-12T12:41:37;11.80;99.90
612;DHT22;293;53.888;11.464;2023-02-12T12:44:16;11.90;99.90
612;DHT22;293;53.888;11.464;2023-02-12T12:46:59;12.00;99.90
612;DHT22;293;53.888;11.464;2023-02-12T12:49:46;12.00;99.90
612;DHT22;293;53.888;11.464;2023-02-12T12:55:26;12.00;99.90
612;DHT22;293;53.888;11.464;2023-02-12T12:58:00;12.00;99.90
612;DHT22;293;53.888;11.464;2023-02-12T13:00:43;12.20;99.90
612;DHT22;293;53.888;11.464;2023-02-12T13:03:44;12.20;99.90
612;DHT22;293;53.888;11.464;2023-02-12T13:12:35;12.00;99.90
612;DHT22;293;53.888;11.464;2023-02-12T13:15:16;12.00;99.90
612;DHT22;293;53.888;11.464;2023-02-12T13:17:52;12.00;99.90
612;DHT22;293;53.888;11.464;2023-02-12T13:20:30;11.90;99.90
612;DHT22;293;53.888;11.464;2023-02-12T13:22:59;12.00;99.90
612;DHT22;293;53.888;11.464;2023-02-12T13:25:33;12.20;99.90
612;DHT22;293;53.888;11.464;2023-02-12T13:28:04;12.20;99.90
612;DHT22;293;53.888;11.464;2023-02-12T13:30:37;12.20;99.90
612;DHT22;293;53.888;11.464;2023-02-12T13:33:09;12.20;99.90
612;DHT22;293;53.888;11.464;2023-02-12T13:35:41;12.20;99.90
612;DHT22;293;53.888;11.464;2023-02-12T13:38:14;12.10;99.90
612;DHT22;293;53.888;11.464;2023-02-12T13:40:43;12.00;99.90
612;DHT22;293;53.888;11.464;2023-02-12T13:43:26;12.10;99.90
612;DHT22;293;53.888;11.464;2023-02-12T13:46:02;12.10;99.90
612;DHT22;293;53.888;11.464;2023-02-12T13:48:42;12.00;99.90
612;DHT22;293;53.888;11.464;2023-02-12T13:51:17;12.00;99.90
612;DHT22;293;53.888;11.464;2023-02-12T13:53:57;12.10;99.90
612;DHT22;293;53.888;11.464;2023-02-12T13:56:33;12.00;99.90
612;DHT22;293;53.888;11.464;2023-02-12T13:59:13;11.90;99.90
612;DHT22;293;53.888;11.464;2023-02-12T14:01:52;11.80;99.90
612;DHT22;293;53.888;11.464;2023-02-12T14:04:28;11.90;99.90
612;DHT22;293;53.888;11.464;2023-02-12T14:07:00;11.90;99.90
612;DHT22;293;53.888;11.464;2023-02-12T14:09:35;11.90;99.90
612;DHT22;293;53.888;11.464;2023-02-12T14:12:04;11.70;99.90
612;DHT22;293;53.888;11.464;2023-02-12T14:14:34;11.70;99.90
612;DHT22;293;53.888;11.464;2023-02-12T14:17:39;11.70;99.90
612;DHT22;293;53.888;11.464;2023-02-12T14:20:19;11.70;99.90
612;DHT22;293;53.888;11.464;2023-02-12T14:25:58;11.60;99.90
612;DHT22;293;53.888;11.464;2023-02-12T14:28:30;11.60;99.90
612;DHT22;293;53.888;11.464;2023-02-12T14:37:35;11.70;99.90
612;DHT22;293;53.888;11.464;2023-02-12T14:40:37;11.70;99.90
612;DHT22;293;53.888;11.464;2023-02-12T14:43:29;11.50;99.90
612;DHT22;293;53.888;11.464;2023-02-12T14:45:58;11.30;99.90
612;DHT22;293;53.888;11.464;2023-02-12T14:48:50;11.20;99.90
612;DHT22;293;53.888;11.464;2023-02-12T14:51:21;11.10;99.90
612;DHT22;293;53.888;11.464;2023-02-12T14:53:53;11.20;99.90
612;DHT22;293;53.888;11.464;2023-02-12T14:56:22;11.20;99.90
612;DHT22;293;53.888;11.464;2023-02-12T14:58:52;11.20;99.90
612;DHT22;293;53.888;11.464;2023-02-12T15:01:27;11.20;99.90
612;DHT22;293;53.888;11.464;2023-02-12T15:03:57;11.20;99.90
612;DHT22;293;53.888;11.464;2023-02-12T15:06:33;11.10;99.90
612;DHT22;293;53.888;11.464;2023-02-12T15:09:05;11.10;99.90
612;DHT22;293;53.888;11.464;2023-02-12T15:11:40;11.10;99.90
612;DHT22;293;53.888;11.464;2023-02-12T15:14:14;11.00;99.90
612;DHT22;293;53.888;11.464;2023-02-12T15:16:51;11.00;99.90
612;DHT22;293;53.888;11.464;2023-02-12T15:19:30;11.10;99.90
612;DHT22;293;53.888;11.464;2023-02-12T15:22:00;11.10;99.90
612;DHT22;293;53.888;11.464;2023-02-12T15:24:27;11.10;99.90
612;DHT22;293;53.888;11.464;2023-02-12T15:26:55;11.10;99.90
612;DHT22;293;53.888;11.464;2023-02-12T15:29:26;11.20;99.90
612;DHT22;293;53.888;11.464;2023-02-12T15:31:55;11.30;99.90
612;DHT22;293;53.888;11.464;2023-02-12T15:34:25;11.30;99.90
612;DHT22;293;53.888;11.464;2023-02-12T15:36:55;11.10;99.90
612;DHT22;293;53.888;11.464;2023-02-12T15:39:23;11.10;99.90
612;DHT22;293;53.888;11.464;2023-02-12T15:41:50;11.10;99.90
612;DHT22;293;53.888;11.464;2023-02-12T15:44:21;11.00;99.90
612;DHT22;293;53.888;11.464;2023-02-12T15:47:10;10.90;99.90
612;DHT22;293;53.888;11.464;2023-02-12T15:49:39;10.80;99.90
612;DHT22;293;53.888;11.464;2023-02-12T15:52:09;10.80;99.90
612;DHT22;293;53.888;11.464;2023-02-12T15:54:37;10.80;99.90
612;DHT22;293;53.888;11.464;2023-02-12T15:57:09;10.70;99.90
612;DHT22;293;53.888;11.464;2023-02-12T15:59:36;10.70;99.90
612;DHT22;293;53.888;11.464;2023-02-12T16:02:18;10.60;99.90
612;DHT22;293;53.888;11.464;2023-02-12T16:04:46;10.60;99.90
612;DHT22;293;53.888;11.464;2023-02-12T16:07:14;10.50;99.90
612;DHT22;293;53.888;11.464;2023-02-12T16:09:42;10.50;99.90
612;DHT22;293;53.888;11.464;2023-02-12T16:12:13;10.40;99.90
612;DHT22;293;53.888;11.464;2023-02-12T16:14:42;10.40;99.90
612;DHT22;293;53.888;11.464;2023-02-12T16:17:21;10.40;99.90
612;DHT22;293;53.888;11.464;2023-02-12T16:19:56;10.40;99.90
612;DHT22;293;53.888;11.464;2023-02-12T16:22:28;10.40;99.90
612;DHT22;293;53.888;11.464;2023-02-12T16:25:00;10.20;99.90
612;DHT22;293;53.888;11.464;2023-02-12T16:27:29;10.10;99.90
612;DHT22;293;53.888;11.464;2023-02-12T16:29:58;10.00;99.90
612;DHT22;293;53.888;11.464;2023-02-12T16:32:32;10.00;99.90
612;DHT22;293;53.888;11.464;2023-02-12T16:35:01;9.90;99.90
612;DHT22;293;53.888;11.464;2023-02-12T16:37:46;9.90;99.90
612;DHT22;293;53.888;11.464;2023-02-12T16:40:27;9.90;99.90
612;DHT22;293;53.888;11.464;2023-02-12T16:45:42;9.70;99.90
612;DHT22;293;53.888;11.464;2023-02-12T16:48:20;9.60;99.90
612;DHT22;293;53.888;11.464;2023-02-12T16:50:52;9.60;99.90
612;DHT22;293;53.888;11.464;2023-02-12T16:53:25;9.50;99.90
612;DHT22;293;53.888;11.464;2023-02-12T16:55:53;9.50;99.90
612;DHT22;293;53.888;11.464;2023-02-12T16:58:20;9.50;99.90
612;DHT22;293;53.888;11.464;2023-02-12T17:00:47;9.50;99.90
612;DHT22;293;53.888;11.464;2023-02-12T17:03:16;9.50;99.90
612;DHT22;293;53.888;11.464;2023-02-12T17:05:43;9.50;99.90
612;DHT22;293;53.888;11.464;2023-02-12T17:08:12;9.50;99.90
612;DHT22;293;53.888;11.464;2023-02-12T17:10:40;9.40;99.90
612;DHT22;293;53.888;11.464;2023-02-12T17:13:06;9.30;99.90
612;DHT22;293;53.888;11.464;2023-02-12T17:15:37;9.30;99.90
612;DHT22;293;53.888;11.464;2023-02-12T17:18:07;9.30;99.90
612;DHT22;293;53.888;11.464;2023-02-12T17:20:37;9.20;99.90
612;DHT22;293;53.888;11.464;2023-02-12T17:23:04;9.20;99.90
612;DHT22;293;53.888;11.464;2023-02-12T17:25:31;9.30;99.90